^^
Saratoga-Weather Station Historical Data
Daily Summary for June 27, 2020 Units:  English    Metric   Both
Daily Weekly Monthly Yearly Custom
  High: Low: Average:
Temperature: 90.9 °F 55.6 °F 73.2 °F
Dew Point: 58.8 °F 50.7 °F 55.6 °F
Humidity: 92% 29% 59%
Wind Speed: 10.1mph 0mph 1.6mph
Wind Gust: 16mph - -
Wind- - SW
Pressure: 30 in 29.8 in -
Precipitation: 0 in    
Historical Graphs
 
 
Tabular Data for June 27, 2020
Time Temperature Dew Point Pressure Wind Wind Speed Wind Gust Humidity Rainfall Rate (Hourly) solar
00:03 61.5 °F 53.6 °F 30 in Calm     75% 0 in 0 W/m2
00:08 61.5 °F 54 °F 30 in Calm     76% 0 in 0 W/m2
00:13 61.3 °F 54.1 °F 30 in Calm     77% 0 in 0 W/m2
00:18 61.2 °F 54 °F 30 in Calm     77% 0 in 0 W/m2
00:23 61.2 °F 54.3 °F 30 in Calm     78% 0 in 0 W/m2
00:28 61.2 °F 54.3 °F 30 in Calm     78% 0 in 0 W/m2
00:33 61 °F 54.1 °F 30 in Calm     78% 0 in 0 W/m2
00:38 60.8 °F 54.3 °F 30 in Calm     79% 0 in 0 W/m2
00:43 60.6 °F 54.1 °F 30 in Calm     79% 0 in 0 W/m2
00:48 60.6 °F 54.1 °F 30 in Calm     79% 0 in 0 W/m2
00:53 60.6 °F 54.5 °F 30 in Calm     80% 0 in 0 W/m2
00:58 60.6 °F 54.5 °F 30 in Calm     80% 0 in 0 W/m2
01:03 60.6 °F 54.5 °F 30 in Calm   1 mph 80% 0 in 0 W/m2
01:08 60.6 °F 54.5 °F 30 in Calm     80% 0 in 0 W/m2
01:13 60.6 °F 54.5 °F 30 in Calm   1 mph 80% 0 in 0 W/m2
01:18 60.6 °F 54.7 °F 30 in Calm     81% 0 in 0 W/m2
01:23 60.4 °F 54.3 °F 30 in Calm     80% 0 in 0 W/m2
01:28 60.3 °F 54.1 °F 30 in Calm     80% 0 in 0 W/m2
01:33 60.3 °F 54.1 °F 30 in Calm     80% 0 in 0 W/m2
01:38 60.1 °F 54.3 °F 30 in Calm     81% 0 in 0 W/m2
01:43 60.1 °F 54.3 °F 30 in Calm     81% 0 in 0 W/m2
01:48 59.9 °F 54.3 °F 30 in Calm     82% 0 in 0 W/m2
01:53 59.7 °F 54.1 °F 30 in Calm     82% 0 in 0 W/m2
01:59 59.5 °F 54 °F 30 in Calm     82% 0 in 0 W/m2
02:04 59.5 °F 54.3 °F 30 in Calm     83% 0 in 0 W/m2
02:09 59.4 °F 54.1 °F 30 in Calm   1 mph 83% 0 in 0 W/m2
02:14 59.2 °F 54 °F 30 in Calm     83% 0 in 0 W/m2
02:19 58.8 °F 54 °F 30 in Calm   1 mph 84% 0 in 0 W/m2
02:24 58.6 °F 53.8 °F 30 in Calm     84% 0 in 0 W/m2
02:29 58.6 °F 53.8 °F 30 in Calm     84% 0 in 0 W/m2
02:34 58.5 °F 54 °F 30 in Calm     85% 0 in 0 W/m2
02:39 58.5 °F 54 °F 30 in Calm     85% 0 in 0 W/m2
02:44 58.5 °F 54 °F 30 in Calm   1 mph 85% 0 in 0 W/m2
02:49 58.6 °F 54.1 °F 30 in Calm     85% 0 in 0 W/m2
02:54 58.6 °F 54.1 °F 30 in Calm     85% 0 in 0 W/m2
02:59 58.6 °F 54.1 °F 30 in Calm     85% 0 in 0 W/m2
03:04 58.6 °F 54.1 °F 30 in Calm     85% 0 in 0 W/m2
03:09 58.6 °F 54.1 °F 30 in Calm   1 mph 85% 0 in 0 W/m2
03:20 58.5 °F 54 °F 30 in Calm   1 mph 85% 0 in 0 W/m2
03:25 58.5 °F 54 °F 30 in Calm   1 mph 85% 0 in 0 W/m2
03:30 58.5 °F 54 °F 30 in Calm     85% 0 in 0 W/m2
03:35 58.3 °F 54.1 °F 30 in Calm   1 mph 86% 0 in 0 W/m2
03:40 58.3 °F 54.1 °F 30 in Calm     86% 0 in 0 W/m2
03:45 58.3 °F 54.1 °F 30 in Calm     86% 0 in 0 W/m2
03:50 57.9 °F 53.8 °F 30 in Calm     86% 0 in 0 W/m2
03:55 57.9 °F 53.8 °F 30 in Calm     86% 0 in 0 W/m2
04:00 57.7 °F 53.6 °F 30 in Calm     86% 0 in 0 W/m2
04:05 57.7 °F 54 °F 30 in Calm     87% 0 in 0 W/m2
04:10 57.7 °F 54 °F 30 in Calm     87% 0 in 0 W/m2
04:15 57.7 °F 54 °F 30 in Calm     87% 0 in 0 W/m2
04:20 57.6 °F 53.8 °F 30 in Calm     87% 0 in 0 W/m2
04:25 57.6 °F 53.8 °F 30 in Calm     87% 0 in 0 W/m2
04:30 57.4 °F 53.6 °F 30 in Calm     87% 0 in 0 W/m2
04:35 57.2 °F 53.6 °F 30 in Calm     88% 0 in 0 W/m2
04:40 57 °F 53.4 °F 30 in Calm     88% 0 in 0 W/m2
04:45 56.8 °F 53.2 °F 30 in Calm     88% 0 in 0 W/m2
04:50 56.7 °F 53.1 °F 30 in Calm     88% 0 in 0 W/m2
04:55 56.7 °F 53.1 °F 30 in Calm     88% 0 in 0 W/m2
05:00 56.7 °F 53.4 °F 30 in Calm     89% 0 in 0 W/m2
05:05 56.7 °F 53.4 °F 30 in Calm     89% 0 in 0 W/m2
05:10 56.7 °F 53.4 °F 30 in Calm     89% 0 in 0 W/m2
05:15 56.7 °F 53.4 °F 30 in Calm     89% 0 in 0 W/m2
05:20 56.5 °F 53.2 °F 30 in Calm     89% 0 in 0 W/m2
05:25 56.5 °F 53.2 °F 30 in Calm     89% 0 in 0 W/m2
05:30 56.5 °F 53.2 °F 30 in Calm     89% 0 in 0 W/m2
05:35 56.5 °F 53.2 °F 30 in Calm     89% 0 in 0 W/m2
05:40 56.3 °F 53.4 °F 30 in Calm     90% 0 in 0 W/m2
05:45 56.5 °F 53.6 °F 30 in Calm     90% 0 in 0 W/m2
05:50 56.3 °F 53.4 °F 30 in Calm     90% 0 in 0 W/m2
05:55 56.1 °F 53.2 °F 30 in Calm     90% 0 in 0 W/m2
06:00 56.1 °F 53.2 °F 30 in Calm     90% 0 in 0 W/m2
06:05 56.1 °F 53.2 °F 30 in Calm     90% 0 in 0 W/m2
06:11 55.9 °F 53.4 °F 30 in Calm     91% 0 in 0 W/m2
06:16 55.9 °F 53.4 °F 30 in Calm     91% 0 in 5 W/m2
06:21 55.9 °F 53.4 °F 30 in Calm     91% 0 in 5 W/m2
06:26 55.8 °F 53.2 °F 30 in Calm     91% 0 in 7 W/m2
06:31 55.8 °F 53.2 °F 30 in Calm     91% 0 in 11 W/m2
06:36 55.6 °F 53.1 °F 30 in Calm     91% 0 in 14 W/m2
06:41 55.6 °F 53.2 °F 30 in Calm     92% 0 in 18 W/m2
06:46 55.6 °F 53.2 °F 30 in Calm     92% 0 in 19 W/m2
06:51 55.6 °F 53.2 °F 30 in Calm     92% 0 in 25 W/m2
06:56 55.8 °F 53.4 °F 30 in Calm     92% 0 in 28 W/m2
07:01 55.9 °F 53.6 °F 30 in Calm     92% 0 in 33 W/m2
07:06 56.1 °F 53.8 °F 30 in Calm     92% 0 in 32 W/m2
07:11 56.5 °F 54.1 °F 30 in Calm     92% 0 in 30 W/m2
07:16 56.7 °F 54.1 °F 30 in Calm     91% 0 in 40 W/m2
07:21 57 °F 54.5 °F 30 in West 0.9 mph 1 mph 91% 0 in 58 W/m2
07:26 57.6 °F 54.7 °F 30 in Calm     90% 0 in 84 W/m2
07:32 57.9 °F 55 °F 30 in Calm   1 mph 90% 0 in 93 W/m2
07:37 58.5 °F 55.2 °F 30 in Calm   1 mph 89% 0 in 62 W/m2
07:42 58.6 °F 54.9 °F 30 in Calm     87% 0 in 39 W/m2
07:47 59 °F 55.2 °F 30 in Calm   1 mph 87% 0 in 37 W/m2
07:52 59.2 °F 55 °F 30 in Calm     86% 0 in 67 W/m2
07:57 59.4 °F 55.2 °F 30 in NW 0.9 mph 1 mph 86% 0 in 128 W/m2
08:02 59.5 °F 55 °F 30 in Calm     85% 0 in 308 W/m2
08:07 60.1 °F 55.2 °F 30 in Calm   2 mph 84% 0 in 334 W/m2
08:12 60.8 °F 55.6 °F 30 in Calm   1 mph 83% 0 in 234 W/m2
08:17 61.3 °F 55.8 °F 30 in Calm   1 mph 82% 0 in 213 W/m2
08:22 61.9 °F 55.9 °F 30 in ESE 0.9 mph 1 mph 81% 0 in 113 W/m2
08:27 62.1 °F 55.8 °F 30 in Calm     80% 0 in 123 W/m2
08:32 62.4 °F 55.8 °F 30 in Calm   1 mph 79% 0 in 128 W/m2
08:37 62.8 °F 56.1 °F 30 in ESE 2 mph 2 mph 79% 0 in 100 W/m2
08:42 63.1 °F 56.1 °F 30 in ENE 2 mph 2 mph 78% 0 in 128 W/m2
08:47 64 °F 56.3 °F 30 in Calm   2 mph 76% 0 in 141 W/m2
08:52 64.6 °F 56.5 °F 30 in ENE 0.9 mph 3 mph 75% 0 in 125 W/m2
08:57 65.1 °F 57 °F 30 in ESE 0.9 mph 2 mph 75% 0 in 149 W/m2
09:02 65.8 °F 57 °F 30 in NNW 2 mph 2 mph 73% 0 in 141 W/m2
09:07 65.8 °F 57 °F 30 in East 0.9 mph 2 mph 73% 0 in 188 W/m2
09:12 66.4 °F 57.4 °F 30 in Calm   1 mph 73% 0 in 274 W/m2
09:17 66.7 °F 57.4 °F 30 in Calm   2 mph 72% 0 in 257 W/m2
09:22 66.7 °F 57.4 °F 30 in Calm   2 mph 72% 0 in 232 W/m2
09:27 66.9 °F 57.2 °F 30 in NNW 2 mph 2 mph 71% 0 in 206 W/m2
09:32 66.9 °F 57.2 °F 30 in East 2 mph 4 mph 71% 0 in 279 W/m2
09:37 67.5 °F 57.7 °F 30 in NNE 2.9 mph 3 mph 71% 0 in 309 W/m2
09:43 67.6 °F 57.9 °F 30 in Calm   2 mph 71% 0 in 306 W/m2
09:48 68.2 °F 57.6 °F 30 in NE 4 mph 4 mph 69% 0 in 232 W/m2
09:53 68.4 °F 57.4 °F 30 in Calm   1 mph 68% 0 in 236 W/m2
09:58 68.5 °F 57.9 °F 30 in Calm   4 mph 69% 0 in 195 W/m2
10:03 69.1 °F 58.1 °F 30 in ENE 2.9 mph 7 mph 68% 0 in 190 W/m2
10:08 69.6 °F 57.7 °F 30 in East 2 mph 2 mph 66% 0 in 213 W/m2
10:13 70.3 °F 58.1 °F 30 in West 7 mph 7 mph 65% 0 in 559 W/m2
10:18 71.2 °F 57.6 °F 30 in East 0.9 mph 4 mph 62% 0 in 582 W/m2
10:23 71.8 °F 58.1 °F 30 in NE 2 mph 4 mph 62% 0 in 608 W/m2
10:28 72.1 °F 58.5 °F 30 in ENE 0.9 mph 3 mph 62% 0 in 475 W/m2
10:33 72.5 °F 57.4 °F 30 in NNE 0.9 mph 5 mph 59% 0 in 610 W/m2
10:38 72.9 °F 57.2 °F 30 in ESE 2 mph 4 mph 58% 0 in 617 W/m2
10:43 73.6 °F 57.4 °F 30 in Calm   4 mph 57% 0 in 631 W/m2
10:48 73.9 °F 57.7 °F 29.9 in ENE 4 mph 5 mph 57% 0 in 642 W/m2
10:53 74.3 °F 57.6 °F 29.9 in NE 4 mph 6 mph 56% 0 in 661 W/m2
10:58 74.5 °F 58.3 °F 29.9 in East 2.9 mph 7 mph 57% 0 in 668 W/m2
11:03 74.7 °F 58.5 °F 29.9 in SSE 0.9 mph 5 mph 57% 0 in 673 W/m2
11:08 75 °F 58.8 °F 29.9 in East 2.9 mph 6 mph 57% 0 in 682 W/m2
11:18 76.5 °F 58.6 °F 29.9 in NE 4 mph 8 mph 54% 0 in 700 W/m2
11:23 77 °F 58.6 °F 29.9 in East 0.9 mph 5 mph 53% 0 in 715 W/m2
11:28 77.4 °F 58.3 °F 29.9 in East 2.9 mph 8 mph 52% 0 in 722 W/m2
11:33 77.7 °F 57.6 °F 29.9 in East 2 mph 5 mph 50% 0 in 731 W/m2
11:38 78.3 °F 57 °F 29.9 in ESE 4 mph 4 mph 48% 0 in 738 W/m2
11:43 78.3 °F 57.6 °F 29.9 in ENE 0.9 mph 6 mph 49% 0 in 745 W/m2
11:48 78.4 °F 57.2 °F 29.9 in East 0.9 mph 4 mph 48% 0 in 752 W/m2
11:53 78.6 °F 56.7 °F 29.9 in WNW 0.9 mph 4 mph 47% 0 in 752 W/m2
11:58 78.6 °F 56.7 °F 29.9 in West 2 mph 3 mph 47% 0 in 770 W/m2
12:03 79 °F 57.6 °F 29.9 in WNW 0.9 mph 2 mph 48% 0 in 768 W/m2
12:08 79.3 °F 57.9 °F 29.9 in East 0.9 mph 9 mph 48% 0 in 788 W/m2
12:13 79.5 °F 57.6 °F 29.9 in NE 0.9 mph 3 mph 47% 0 in 788 W/m2
12:18 79.9 °F 54.7 °F 29.9 in ENE 4 mph 5 mph 42% 0 in 796 W/m2
12:23 80.2 °F 56.3 °F 29.9 in NNW 2.9 mph 4 mph 44% 0 in 814 W/m2
12:28 81 °F 50.7 °F 29.9 in East 2 mph 9 mph 35% 0 in 821 W/m2
12:33 81.1 °F 50.9 °F 29.9 in NW 4 mph 10 mph 35% 0 in 826 W/m2
12:38 81.3 °F 51.8 °F 29.9 in NW 10.1 mph 13 mph 36% 0 in 828 W/m2
12:43 81.1 °F 52.3 °F 29.9 in WSW 2 mph 4 mph 37% 0 in 831 W/m2
12:48 81 °F 52.9 °F 29.9 in SW 2 mph 13 mph 38% 0 in 831 W/m2
12:53 81.5 °F 54.9 °F 29.9 in WSW 8.1 mph 11 mph 40% 0 in 838 W/m2
12:58 81.7 °F 55.8 °F 29.9 in WNW 4 mph 13 mph 41% 0 in 849 W/m2
13:03 81.7 °F 55 °F 29.9 in NW 4 mph 8 mph 40% 0 in 853 W/m2
13:08 81.3 °F 55.4 °F 29.9 in WNW 2.9 mph 6 mph 41% 0 in 860 W/m2
13:13 82 °F 55.9 °F 29.9 in West 4 mph 7 mph 41% 0 in 858 W/m2
13:18 82 °F 55.9 °F 29.9 in WNW 4.9 mph 10 mph 41% 0 in 860 W/m2
13:23 81.9 °F 56.5 °F 29.9 in WNW 2 mph 6 mph 42% 0 in 872 W/m2
13:28 82 °F 55.9 °F 29.9 in WNW 4.9 mph 7 mph 41% 0 in 882 W/m2
13:33 82.2 °F 56.1 °F 29.9 in WNW 2.9 mph 4 mph 41% 0 in 752 W/m2
13:38 82.8 °F 57.4 °F 29.9 in NNW 2 mph 2 mph 42% 0 in 854 W/m2
13:43 82.8 °F 55.9 °F 29.9 in West 0.9 mph 7 mph 40% 0 in 847 W/m2
13:48 82.9 °F 56.1 °F 29.9 in NW 2 mph 9 mph 40% 0 in 872 W/m2
13:53 83.1 °F 56.3 °F 29.9 in West 6.9 mph 7 mph 40% 0 in 840 W/m2
13:58 83.3 °F 55.8 °F 29.9 in SW 2.9 mph 9 mph 39% 0 in 828 W/m2
14:03 83.7 °F 56.1 °F 29.9 in NE 0.9 mph 4 mph 39% 0 in 831 W/m2
14:08 84.4 °F 56.7 °F 29.9 in South 0.9 mph 5 mph 39% 0 in 891 W/m2
14:13 85.3 °F 57.6 °F 29.9 in South 2 mph 7 mph 39% 0 in 902 W/m2
14:18 84.9 °F 55.8 °F 29.9 in Calm   9 mph 37% 0 in 904 W/m2
14:23 85.3 °F 56.1 °F 29.9 in ENE 2.9 mph 5 mph 37% 0 in 914 W/m2
14:28 85.1 °F 55.2 °F 29.9 in ESE 2 mph 6 mph 36% 0 in 798 W/m2
14:33 84.9 °F 54.1 °F 29.9 in ENE 4 mph 10 mph 35% 0 in 872 W/m2
14:38 85.1 °F 54.3 °F 29.9 in SW 4 mph 8 mph 35% 0 in 628 W/m2
14:43 85.1 °F 55.9 °F 29.8 in ENE 2 mph 10 mph 37% 0 in 800 W/m2
14:48 85.5 °F 55.4 °F 29.8 in North 4 mph 4 mph 36% 0 in 882 W/m2
14:53 86 °F 55.2 °F 29.8 in NW 6.9 mph 12 mph 35% 0 in 802 W/m2
14:58 86.7 °F 56.7 °F 29.8 in NNW 2 mph 3 mph 36% 0 in 860 W/m2
15:03 87.4 °F 54.9 °F 29.8 in West 6.9 mph 12 mph 33% 0 in 631 W/m2
15:08 87.1 °F 55.2 °F 29.8 in SW 4 mph 4 mph 34% 0 in 726 W/m2
15:13 87.1 °F 54.5 °F 29.8 in North 2.9 mph 12 mph 33% 0 in 795 W/m2
15:18 87.3 °F 54.7 °F 29.8 in WNW 4 mph 9 mph 33% 0 in 837 W/m2
15:23 87.4 °F 54.9 °F 29.8 in WNW 2.9 mph 9 mph 33% 0 in 807 W/m2
15:28 88 °F 56.1 °F 29.8 in NW 4 mph 5 mph 34% 0 in 788 W/m2
15:33 87.8 °F 55 °F 29.8 in East 2 mph 10 mph 33% 0 in 807 W/m2
15:38 88 °F 55.2 °F 29.8 in West 6 mph 6 mph 33% 0 in 751 W/m2
15:43 88.5 °F 55.8 °F 29.8 in West 2 mph 5 mph 33% 0 in 802 W/m2
15:48 88.9 °F 55.2 °F 29.8 in WSW 0.9 mph 9 mph 32% 0 in 793 W/m2
15:53 88.9 °F 56.1 °F 29.8 in WSW 6.9 mph 7 mph 33% 0 in 788 W/m2
16:03 89.4 °F 56.5 °F 29.8 in SW 0.9 mph 2 mph 33% 0 in 772 W/m2
16:08 89.4 °F 55.8 °F 29.8 in West 2.9 mph 9 mph 32% 0 in 766 W/m2
16:14 89.4 °F 54.9 °F 29.8 in ESE 2 mph 7 mph 31% 0 in 735 W/m2
16:19 89.8 °F 54.1 °F 29.8 in NW 4.9 mph 9 mph 30% 0 in 742 W/m2
16:24 90 °F 54.3 °F 29.8 in WSW 2 mph 9 mph 30% 0 in 729 W/m2
16:29 90.1 °F 53.6 °F 29.8 in West 8.9 mph 10 mph 29% 0 in 719 W/m2
16:34 90 °F 53.4 °F 29.8 in NW 4.9 mph 11 mph 29% 0 in 705 W/m2
16:39 89.4 °F 53.1 °F 29.8 in NNW 8.9 mph 9 mph 29% 0 in 687 W/m2
16:44 89.1 °F 53.6 °F 29.8 in NNW 2.9 mph 11 mph 30% 0 in 675 W/m2
16:49 89.4 °F 54.9 °F 29.8 in SW 4 mph 4 mph 31% 0 in 666 W/m2
16:54 89.8 °F 54.1 °F 29.8 in NW 6 mph 9 mph 30% 0 in 661 W/m2
16:59 90 °F 54.3 °F 29.8 in NW 4.9 mph 8 mph 30% 0 in 652 W/m2
17:04 90.1 °F 54.5 °F 29.8 in NW 2 mph 5 mph 30% 0 in 638 W/m2
17:09 90.7 °F 55 °F 29.8 in NW 2 mph 4 mph 30% 0 in 633 W/m2
17:14 90.9 °F 55.2 °F 29.8 in SW 4 mph 10 mph 30% 0 in 626 W/m2
17:19 90.7 °F 54.1 °F 29.8 in NW 4 mph 6 mph 29% 0 in 608 W/m2
17:24 90.7 °F 54.1 °F 29.8 in ESE 6.9 mph 7 mph 29% 0 in 585 W/m2
17:29 90.3 °F 54.7 °F 29.8 in NE 0.9 mph 10 mph 30% 0 in 573 W/m2
17:34 90.1 °F 54.5 °F 29.8 in NNW 4 mph 16 mph 30% 0 in 561 W/m2
17:39 90.3 °F 54.7 °F 29.8 in West 6 mph 8 mph 30% 0 in 547 W/m2
17:44 90.3 °F 54.7 °F 29.8 in WSW 4.9 mph 16 mph 30% 0 in 533 W/m2
17:49 90.3 °F 54.7 °F 29.8 in West 6 mph 14 mph 30% 0 in 520 W/m2
17:54 90.1 °F 54.5 °F 29.8 in West 6.9 mph 10 mph 30% 0 in 508 W/m2
17:59 90.1 °F 55.4 °F 29.8 in West 2.9 mph 5 mph 31% 0 in 497 W/m2
18:04 90.3 °F 54.7 °F 29.8 in WNW 6 mph 10 mph 30% 0 in 480 W/m2
18:09 90.3 °F 54.7 °F 29.8 in WSW 4 mph 10 mph 30% 0 in 468 W/m2
18:14 90.3 °F 54.7 °F 29.8 in NW 4 mph 11 mph 30% 0 in 455 W/m2
18:19 90 °F 54.3 °F 29.8 in WSW 2.9 mph 8 mph 30% 0 in 443 W/m2
18:24 90.1 °F 55.4 °F 29.8 in NNW 4.9 mph 7 mph 31% 0 in 424 W/m2
18:29 90.1 °F 55.4 °F 29.8 in SSW 4 mph 5 mph 31% 0 in 411 W/m2
18:34 90.1 °F 55.4 °F 29.8 in NW 4 mph 10 mph 31% 0 in 399 W/m2
18:39 89.8 °F 55.9 °F 29.8 in WNW 2.9 mph 9 mph 32% 0 in 381 W/m2
18:44 89.8 °F 55 °F 29.8 in NW 2.9 mph 8 mph 31% 0 in 352 W/m2
18:49 90 °F 55.2 °F 29.8 in WSW 2 mph 4 mph 31% 0 in 327 W/m2
18:54 90 °F 55.2 °F 29.8 in NW 6 mph 8 mph 31% 0 in 297 W/m2
19:04 89.8 °F 55 °F 29.8 in West 4 mph 10 mph 31% 0 in 257 W/m2
19:09 89.4 °F 54 °F 29.8 in WSW 4 mph 11 mph 30% 0 in 234 W/m2
19:14 89.4 °F 54 °F 29.8 in West 6 mph 10 mph 30% 0 in 211 W/m2
19:19 89.4 °F 54.9 °F 29.8 in WNW 4 mph 11 mph 31% 0 in 199 W/m2
19:24 89.6 °F 54.1 °F 29.8 in WNW 2.9 mph 7 mph 30% 0 in 204 W/m2
19:30 89.2 °F 54.7 °F 29.8 in NNW 4.9 mph 8 mph 31% 0 in 211 W/m2
19:35 89.2 °F 54.7 °F 29.8 in WNW 2 mph 12 mph 31% 0 in 218 W/m2
19:40 89.1 °F 54.5 °F 29.8 in West 2 mph 7 mph 31% 0 in 213 W/m2
19:45 89.1 °F 55.4 °F 29.8 in WNW 2.9 mph 12 mph 32% 0 in 202 W/m2
19:50 89.1 °F 55.4 °F 29.8 in WNW 2 mph 3 mph 32% 0 in 188 W/m2
19:55 89.1 °F 54.5 °F 29.8 in North 2.9 mph 7 mph 31% 0 in 167 W/m2
20:00 88.7 °F 55 °F 29.8 in West 0.9 mph 4 mph 32% 0 in 139 W/m2
20:05 88.5 °F 55.8 °F 29.8 in SW 2 mph 3 mph 33% 0 in 116 W/m2
20:10 88.5 °F 55.8 °F 29.8 in NNW 0.9 mph 3 mph 33% 0 in 104 W/m2
20:15 88.5 °F 55.8 °F 29.8 in North 0.9 mph 2 mph 33% 0 in 97 W/m2
20:20 88.5 °F 55.8 °F 29.8 in NW 2 mph 7 mph 33% 0 in 90 W/m2
20:25 88 °F 56.1 °F 29.8 in NW 4.9 mph 5 mph 34% 0 in 77 W/m2
20:30 87.6 °F 55.8 °F 29.8 in West 2 mph 6 mph 34% 0 in 65 W/m2
20:35 87.3 °F 56.3 °F 29.8 in NW 4.9 mph 6 mph 35% 0 in 54 W/m2
20:40 86.7 °F 56.7 °F 29.8 in NNW 0.9 mph 3 mph 36% 0 in 39 W/m2
20:46 86.2 °F 56.8 °F 29.8 in Calm   5 mph 37% 0 in 23 W/m2
20:51 85.6 °F 57.9 °F 29.8 in Calm   1 mph 39% 0 in 18 W/m2
20:56 84.9 °F 57.9 °F 29.8 in Calm   1 mph 40% 0 in 18 W/m2
21:01 84.4 °F 58.8 °F 29.8 in Calm   1 mph 42% 0 in 12 W/m2
21:06 83.7 °F 57.4 °F 29.8 in Calm     41% 0 in 9 W/m2
21:11 82.8 °F 58.6 °F 29.8 in Calm     44% 0 in 7 W/m2
21:16 82 °F 58.6 °F 29.8 in Calm   1 mph 45% 0 in 5 W/m2
21:21 81.3 °F 58.6 °F 29.8 in Calm     46% 0 in 5 W/m2
21:26 80.6 °F 58.5 °F 29.8 in Calm   1 mph 47% 0 in 0 W/m2
21:31 79.9 °F 57.9 °F 29.8 in Calm   1 mph 47% 0 in 0 W/m2
21:36 79.3 °F 57.9 °F 29.8 in Calm   1 mph 48% 0 in 0 W/m2
21:41 78.8 °F 58.6 °F 29.8 in Calm   1 mph 50% 0 in 0 W/m2
21:46 78.3 °F 58.1 °F 29.8 in Calm   1 mph 50% 0 in 0 W/m2
21:51 77.7 °F 58.1 °F 29.8 in Calm     51% 0 in 0 W/m2
21:56 77.4 °F 58.3 °F 29.8 in SSW 1 mph 1 mph 52% 0 in 0 W/m2
22:01 77 °F 58.6 °F 29.8 in Calm     53% 0 in 0 W/m2
22:06 76.6 °F 58.3 °F 29.8 in Calm     53% 0 in 0 W/m2
22:11 76.3 °F 58.5 °F 29.8 in Calm     54% 0 in 0 W/m2
22:16 75.9 °F 58.6 °F 29.8 in Calm   1 mph 55% 0 in 0 W/m2
22:21 75.6 °F 58.3 °F 29.8 in Calm   1 mph 55% 0 in 0 W/m2
22:26 75.4 °F 58.6 °F 29.8 in Calm     56% 0 in 0 W/m2
22:31 75 °F 58.3 °F 29.8 in Calm   1 mph 56% 0 in 0 W/m2
22:36 74.7 °F 58.5 °F 29.8 in Calm     57% 0 in 0 W/m2
22:41 74.5 °F 58.3 °F 29.8 in Calm     57% 0 in 0 W/m2
22:46 74.1 °F 57.9 °F 29.8 in Calm     57% 0 in 0 W/m2
22:51 74.1 °F 58.5 °F 29.8 in Calm     58% 0 in 0 W/m2
22:56 74.1 °F 58.5 °F 29.8 in Calm   2 mph 58% 0 in 0 W/m2
23:01 74.1 °F 58.8 °F 29.8 in SE 2 mph 2 mph 59% 0 in 0 W/m2
23:06 74.1 °F 58.5 °F 29.8 in Calm   1 mph 58% 0 in 0 W/m2
23:11 74.1 °F 58.5 °F 29.8 in Calm   2 mph 58% 0 in 0 W/m2
23:16 74.1 °F 58.5 °F 29.8 in SW 0.9 mph 2 mph 58% 0 in 0 W/m2
23:21 74.5 °F 57.2 °F 29.8 in Calm   2 mph 55% 0 in 0 W/m2
23:26 74.7 °F 58.5 °F 29.8 in Calm   1 mph 57% 0 in 0 W/m2
23:32 74.8 °F 58.1 °F 29.8 in Calm   1 mph 56% 0 in 0 W/m2
23:37 74.8 °F 58.1 °F 29.8 in Calm   1 mph 56% 0 in 0 W/m2
23:42 74.7 °F 58.5 °F 29.8 in SSW 0.9 mph 1 mph 57% 0 in 0 W/m2
23:47 74.5 °F 57.7 °F 29.8 in SSW 0.9 mph 1 mph 56% 0 in 0 W/m2
23:52 74.3 °F 58.1 °F 29.8 in WSW 0.9 mph 1 mph 57% 0 in 0 W/m2
23:57 74.1 °F 57.4 °F 29.8 in Calm   2 mph 56% 0 in 0 W/m2
Juneau County Weather
Compliments of Weather Underground - 4 mb